Ballingry, United Kingdom
Current Conditions -  °F | °C
As of 11:20 AM on Wednesday 26 Nov 2014 (Local Time) from EGPH Reporting Station
Light Rain Light Rain  
Wind Chill: 41°   Ceiling: 3800
Heat Index: 41°   Visibility: 2.8mi
Dew Point: 41°   Wind: 0mph
Humidity: 100%   Direction: NA
Pressure: 30"   Gusts: NA
Location:  56.16°N, 3.33°W
Report Text: EGPH 261120Z 00000KT 4500 -RA FEW004 BKN038 05/05 Q1016
Loading
Personal Weather Stations






























Interactive Weather Map New forecast layout! Learn more

10-Day Weather Forecast

Advertisements
Track Severe Weather on mobile